Church Hill, Texas
Current Conditions -  °F | °C
As of 6:55 PM on Saturday 22 Nov 2014 (Local Time) from KRFI Reporting Station
Thunderstorm Thunderstorm  
Wind Chill: 63°   Ceiling: 1900
Heat Index: 63°   Visibility: 4mi
Dew Point: 61°   Wind: 7mph
Humidity: 95%   Direction: 110°ESE
Pressure: 29.88"   Gusts: NA
Location:  32.1449°N, 94.7416°W
Report Text: KRFI 230055Z AUTO 11006KT 4SM +VCTSRA BKN019 BKN027 OVC065 17/16 A2988 RMK AO2 LTG DSNT SW AND W T01700162
Loading
Personal Weather Stations






























Interactive Weather Map New forecast layout! Learn more

10-Day Weather Forecast

Advertisements
Track Severe Weather on mobile